Time;durP1;ratioP1;P1;durP2;ratioP2;P2;SDS_P1;SDS_P2;PMS_P1;PMS_P2;Temp;Humidity;BMP_temperature;BMP_pressure;BME280_temperature;BME280_humidity;BME280_pressure;Samples;Min_cycle;Max_cycle;Signal;HPM_P1;HPM_P2
2022/10/20 00:00:17;;;;;;;11.20;6.40;;;;;;;5.16;73.34;101142.70;100006;1296;96576;-81
2022/10/20 00:03:04;;;;;;;8.90;5.70;;;;;;;5.11;73.35;101141.13;99906;1293;137500;-81
2022/10/20 00:05:31;;;;;;;9.10;5.60;;;;;;;5.07;73.68;101137.67;100016;1299;107946;-82
2022/10/20 00:07:58;;;;;;;9.10;5.60;;;;;;;5.05;73.95;101140.08;99995;1291;98053;-81
2022/10/20 00:10:26;;;;;;;8.40;6.00;;;;;;;5.02;73.69;101143.33;100020;1296;107888;-81
2022/10/20 00:12:53;;;;;;;9.20;5.70;;;;;;;4.99;73.96;101143.13;100014;1297;96476;-81
2022/10/20 00:15:21;;;;;;;8.30;5.50;;;;;;;4.97;73.85;101147.77;99852;1292;137906;-81
2022/10/20 00:17:48;;;;;;;10.20;6.00;;;;;;;4.95;73.93;101151.56;99962;1297;105712;-81
2022/10/20 00:20:16;;;;;;;8.10;5.70;;;;;;;4.93;74.00;101157.94;99874;1294;139456;-81
2022/10/20 00:22:43;;;;;;;9.00;5.40;;;;;;;4.92;73.91;101156.20;99862;1298;189062;-81
2022/10/20 00:25:11;;;;;;;8.90;5.40;;;;;;;4.91;74.08;101154.65;100010;1296;96467;-81
2022/10/20 00:27:38;;;;;;;9.30;6.10;;;;;;;4.90;74.09;101154.48;99826;1302;139573;-81
2022/10/20 00:30:07;;;;;;;9.30;5.80;;;;;;;4.89;74.19;101151.89;99947;1292;107659;-83
2022/10/20 00:32:34;;;;;;;8.70;6.30;;;;;;;4.89;74.26;101150.86;99902;1299;137205;-83
2022/10/20 00:35:02;;;;;;;10.40;6.30;;;;;;;4.87;74.23;101149.30;100007;1292;106679;-83
2022/10/20 00:37:29;;;;;;;9.80;6.70;;;;;;;4.83;74.16;101144.59;99989;1297;96463;-80
2022/10/20 00:39:56;;;;;;;7.40;5.30;;;;;;;4.79;74.16;101140.95;99857;1297;137913;-82
2022/10/20 00:42:23;;;;;;;8.20;5.70;;;;;;;4.77;74.30;101145.27;99999;1292;106843;-83
2022/10/20 00:44:56;;;;;;;8.10;5.20;;;;;;;4.77;74.22;101148.19;99883;1292;138165;-81
2022/10/20 00:47:35;;;;;;;9.90;5.40;;;;;;;4.78;74.30;101148.54;99976;1291;107431;-83
2022/10/20 00:50:08;;;;;;;8.40;4.90;;;;;;;4.80;74.30;101150.96;99837;1291;137509;-81
2022/10/20 00:52:37;;;;;;;10.30;5.40;;;;;;;4.81;74.13;101147.00;99998;1292;110063;-83
2022/10/20 00:55:05;;;;;;;8.70;5.00;;;;;;;4.81;74.21;101151.65;99973;1291;107925;-81
2022/10/20 00:57:33;;;;;;;8.30;5.30;;;;;;;4.80;74.21;101150.62;100680;1291;137079;-82
2022/10/20 01:00:01;;;;;;;7.90;5.10;;;;;;;4.78;74.34;101149.23;99958;1287;108018;-82
2022/10/20 01:02:28;;;;;;;9.20;5.30;;;;;;;4.75;74.30;101143.53;99837;1299;137253;-82
2022/10/20 01:04:55;;;;;;;11.40;5.90;;;;;;;4.72;74.56;101145.07;99973;1280;109997;-82
2022/10/20 01:07:23;;;;;;;7.10;4.70;;;;;;;4.71;74.45;101145.58;100002;1297;107379;-82
2022/10/20 01:09:51;;;;;;;8.50;4.90;;;;;;;4.71;74.48;101150.75;99901;1298;138164;-82
2022/10/20 01:12:27;;;;;;;6.70;4.50;;;;;;;4.72;74.34;101152.13;99965;1297;106156;-82
2022/10/20 01:15:02;;;;;;;11.70;4.50;;;;;;;4.72;74.54;101151.61;99860;1299;137588;-82
2022/10/20 01:17:40;;;;;;;9.20;5.00;;;;;;;4.72;74.55;101150.92;99952;1297;109820;-82
2022/10/20 01:20:22;;;;;;;;;;;;;;;4.73;74.51;101151.80;99866;1290;138069;-79
2022/10/20 01:23:09;;;;;;;11.00;5.40;;;;;;;4.72;74.53;101155.58;100015;1274;97072;-81
2022/10/20 01:25:50;;;;;;;11.80;5.30;;;;;;;4.70;74.40;101154.54;100010;1295;108450;-81
2022/10/20 01:28:26;;;;;;;12.20;5.90;;;;;;;4.68;74.50;101152.64;99837;1298;137316;-82
2022/10/20 01:30:59;;;;;;;9.20;5.70;;;;;;;4.66;74.57;101157.58;99976;1299;109371;-81
2022/10/20 01:33:35;;;;;;;8.20;5.40;;;;;;;4.62;74.58;101151.54;99789;1297;137088;-82
2022/10/20 01:36:11;;;;;;;10.00;6.20;;;;;;;4.59;74.61;101154.97;99982;1291;96479;-81
2022/10/20 01:38:42;;;;;;;7.30;5.00;;;;;;;4.58;74.59;101155.13;99845;1292;138047;-81
2022/10/20 01:41:17;;;;;;;9.30;5.30;;;;;;;4.58;74.65;101158.23;99988;1290;96474;-82
2022/10/20 01:43:49;;;;;;;8.90;5.50;;;;;;;4.58;74.71;101157.38;99985;1294;109830;-82
2022/10/20 01:46:19;;;;;;;10.80;6.00;;;;;;;4.57;74.63;101153.58;99858;1298;137939;-81
2022/10/20 01:48:48;;;;;;;8.20;5.60;;;;;;;4.57;74.63;101155.81;100038;1297;96829;-81
2022/10/20 01:51:16;;;;;;;8.80;5.50;;;;;;;4.57;74.47;101155.48;99886;1299;137187;-82
2022/10/20 01:53:43;;;;;;;9.30;5.70;;;;;;;4.54;74.30;101153.23;100056;1299;96521;-81
2022/10/20 01:56:18;;;;;;;7.60;5.30;;;;;;;4.53;74.41;101152.52;100016;1291;137511;-81
2022/10/20 01:59:05;;;;;;;9.40;5.70;;;;;;;4.50;74.55;101151.48;100081;1292;108560;-81
2022/10/20 02:01:49;;;;;;;9.20;5.40;;;;;;;4.47;74.48;101145.06;100075;1295;96514;-81
2022/10/20 02:04:19;;;;;;;8.60;5.30;;;;;;;4.44;74.46;101147.96;99945;1298;137697;-81
2022/10/20 02:06:54;;;;;;;9.90;5.40;;;;;;;4.43;74.53;101150.20;100018;1298;94873;-81
2022/10/20 02:09:30;;;;;;;8.00;4.90;;;;;;;4.43;74.47;101149.16;99926;1292;136951;-80
2022/10/20 02:12:03;;;;;;;9.70;5.20;;;;;;;4.43;74.47;101150.54;99967;1294;107475;-81
2022/10/20 02:14:32;;;;;;;9.80;5.10;;;;;;;4.41;74.48;101146.40;99938;1298;137910;-82
2022/10/20 02:17:02;;;;;;;10.20;6.30;;;;;;;4.38;74.40;101140.36;100751;1293;107316;-82
2022/10/20 02:19:33;;;;;;;9.30;5.80;;;;;;;4.37;74.58;101142.23;100006;1290;96479;-81
2022/10/20 02:22:01;;;;;;;9.70;6.20;;;;;;;4.34;74.28;101140.33;99904;1288;137026;-81
2022/10/20 02:24:34;;;;;;;11.30;6.40;;;;;;;4.28;74.44;101142.51;99991;1291;107502;-81
2022/10/20 02:27:05;;;;;;;9.00;6.10;;;;;;;4.20;74.44;101140.05;100147;1292;137201;-81
2022/10/20 02:29:37;;;;;;;8.50;5.50;;;;;;;4.15;74.53;101138.64;99940;1296;107737;-82
2022/10/20 02:32:04;;;;;;;8.90;5.30;;;;;;;4.12;74.40;101135.33;99802;1292;138037;-80
2022/10/20 02:34:32;;;;;;;11.20;5.10;;;;;;;4.09;74.49;101133.91;99961;1297;110405;-81
2022/10/20 02:36:59;;;;;;;9.10;5.20;;;;;;;4.08;74.61;101135.29;100006;1292;107447;-82
2022/10/20 02:39:27;;;;;;;9.10;5.10;;;;;;;4.07;74.59;101134.08;99907;1297;137519;-81
2022/10/20 02:41:54;;;;;;;9.40;5.50;;;;;;;4.06;74.40;101133.20;100042;1298;106519;-81
2022/10/20 02:44:21;;;;;;;10.90;5.40;;;;;;;4.04;74.42;101135.26;99957;1291;137908;-81
2022/10/20 02:46:49;;;;;;;9.20;4.70;;;;;;;4.00;74.61;101138.85;99986;1292;108512;-82
2022/10/20 02:49:16;;;;;;;9.90;5.70;;;;;;;3.97;74.55;101139.16;99950;1291;107811;-81
2022/10/20 02:51:43;;;;;;;10.60;5.90;;;;;;;3.94;74.52;101142.05;99870;1291;138439;-81
2022/10/20 02:54:10;;;;;;;12.00;6.30;;;;;;;3.90;74.71;101143.56;99965;1291;107502;-81
2022/10/20 02:56:37;;;;;;;11.10;5.90;;;;;;;3.87;74.60;101141.81;99901;1292;137088;-81
2022/10/20 02:59:04;;;;;;;7.40;5.30;;;;;;;3.85;74.90;101142.49;100054;1292;109231;-81
2022/10/20 03:01:31;;;;;;;10.00;6.30;;;;;;;3.87;75.02;101145.77;99996;1294;107549;-81
2022/10/20 03:03:59;;;;;;;9.10;5.50;;;;;;;3.88;75.02;101144.58;99983;1296;137670;-80
2022/10/20 03:06:27;;;;;;;11.10;6.90;;;;;;;3.90;75.13;101145.11;100004;1297;107649;-80
2022/10/20 03:08:54;;;;;;;8.80;6.30;;;;;;;3.92;75.12;101144.27;99844;1284;137697;-80
2022/10/20 03:11:21;;;;;;;10.90;6.80;;;;;;;3.92;74.92;101150.80;100000;1297;109875;-80
2022/10/20 03:13:48;;;;;;;7.50;5.40;;;;;;;3.90;75.07;101149.75;99931;1291;107531;-80
2022/10/20 03:16:15;;;;;;;10.80;5.90;;;;;;;3.87;75.03;101152.48;99939;1291;137127;-80
2022/10/20 03:18:42;;;;;;;9.30;6.30;;;;;;;3.82;75.05;101150.55;100052;1297;107881;-79
2022/10/20 03:21:10;;;;;;;12.00;6.30;;;;;;;3.76;75.13;101150.30;99969;1302;137324;-80
2022/10/20 03:23:37;;;;;;;9.20;6.30;;;;;;;3.72;75.02;101153.19;100052;1297;110082;-80
2022/10/20 03:26:07;;;;;;;9.20;6.20;;;;;;;3.70;75.40;101157.81;99889;1298;138140;-80
2022/10/20 03:28:34;;;;;;;10.30;6.30;;;;;;;3.70;75.51;101152.30;99952;1291;96486;-80
2022/10/20 03:31:01;;;;;;;10.10;5.90;;;;;;;3.70;75.47;101154.36;99940;1292;107500;-80
2022/10/20 03:33:28;;;;;;;8.40;5.80;;;;;;;3.72;75.53;101154.73;99865;1291;138240;-79
2022/10/20 03:35:55;;;;;;;6.90;5.20;;;;;;;3.74;75.72;101152.85;99946;1291;111359;-80
2022/10/20 03:38:22;;;;;;;11.40;6.00;;;;;;;3.75;75.57;101153.39;99920;1292;138572;-79
2022/10/20 03:40:50;;;;;;;8.30;5.50;;;;;;;3.75;75.63;101154.76;100057;1291;95066;-79
2022/10/20 03:43:18;;;;;;;10.60;6.40;;;;;;;3.74;75.69;101161.63;100018;1291;107504;-79
2022/10/20 03:45:45;;;;;;;9.30;6.20;;;;;;;3.72;75.59;101165.91;99871;1283;139086;-80
2022/10/20 03:48:13;;;;;;;11.90;6.10;;;;;;;3.68;75.48;101170.34;99986;1296;109522;-81
2022/10/20 03:50:41;;;;;;;12.30;6.30;;;;;;;3.62;75.63;101167.38;99886;1292;137430;-81
2022/10/20 03:53:12;;;;;;;8.20;5.40;;;;;;;3.60;75.82;101173.20;100027;1291;97091;-80
2022/10/20 03:55:40;;;;;;;10.00;5.90;;;;;;;3.58;75.78;101174.53;99995;1291;106921;-80
2022/10/20 03:58:07;;;;;;;10.80;5.30;;;;;;;3.58;75.75;101176.60;99859;1294;137873;-80
2022/10/20 04:00:34;;;;;;;8.80;5.50;;;;;;;3.57;75.66;101173.84;99986;1291;110445;-80
2022/10/20 04:03:01;;;;;;;10.60;5.30;;;;;;;3.58;75.85;101172.80;99807;1299;137876;-81
2022/10/20 04:05:28;;;;;;;11.50;5.80;;;;;;;3.57;75.92;101175.21;99967;1298;96492;-80
2022/10/20 04:07:55;;;;;;;8.90;5.80;;;;;;;3.56;75.63;101179.15;99973;1293;107618;-80
2022/10/20 04:10:22;;;;;;;8.70;5.70;;;;;;;3.54;75.92;101184.30;99867;1291;96524;-81
2022/10/20 05:53:32;;;;;;;17.60;10.00;;;;;;;3.35;77.96;101235.98;100495;1255;101234;-83
2022/10/20 05:59:55;;;;;;;19.90;9.60;;;;;;;3.68;77.26;101246.20;99891;1299;96483;-81
2022/10/20 06:02:23;;;;;;;17.60;9.90;;;;;;;3.76;77.12;101245.08;99963;1298;111131;-82
2022/10/20 06:04:50;;;;;;;17.20;10.10;;;;;;;3.88;77.14;101243.85;99680;1282;137308;-82
2022/10/20 06:07:17;;;;;;;20.60;10.10;;;;;;;4.05;76.96;101241.10;99894;1282;96473;-82
2022/10/20 06:09:45;;;;;;;18.70;10.60;;;;;;;4.27;77.03;101236.31;99774;1290;138315;-82
2022/10/20 06:12:12;;;;;;;18.30;10.20;;;;;;;4.45;76.71;101240.27;99893;1281;96448;-82
2022/10/20 06:14:39;;;;;;;18.30;10.60;;;;;;;4.62;76.36;101241.27;99935;1291;110234;-82
2022/10/20 06:17:07;;;;;;;21.30;10.80;;;;;;;4.77;76.15;101241.39;99836;1289;138175;-83
2022/10/20 06:19:35;;;;;;;19.60;10.70;;;;;;;5.01;76.07;101241.56;99822;1284;96981;-82
2022/10/20 06:22:02;;;;;;;17.40;9.70;;;;;;;5.35;75.97;101244.02;99808;1289;137862;-82
2022/10/20 06:24:32;;;;;;;15.90;9.80;;;;;;;5.68;75.79;101247.77;100000;1289;96585;-82
2022/10/20 06:27:00;;;;;;;15.40;9.30;;;;;;;5.98;75.45;101249.28;99901;1288;138891;-82
2022/10/20 06:29:28;;;;;;;17.20;9.10;;;;;;;6.31;74.76;101247.45;99967;1289;106601;-82
2022/10/20 06:31:56;;;;;;;19.50;10.80;;;;;;;6.62;73.81;101247.81;100024;1297;96964;-82
2022/10/20 06:34:25;;;;;;;16.70;10.10;;;;;;;6.84;72.88;101247.98;99758;1299;137631;-82
2022/10/20 06:36:53;;;;;;;17.70;10.10;;;;;;;7.09;72.49;101255.04;100012;1291;96377;-81
2022/10/20 06:39:22;;;;;;;17.90;11.30;;;;;;;7.40;72.07;101258.24;99870;1298;139835;-81
2022/10/20 06:42:00;;;;;;;15.20;9.90;;;;;;;7.79;71.41;101257.06;99993;1291;106437;-82
2022/10/20 06:44:30;;;;;;;14.50;9.50;;;;;;;8.03;69.81;101262.83;100009;1291;96463;-81
2022/10/20 06:46:58;;;;;;;13.60;9.10;;;;;;;8.16;69.13;101263.27;99812;1294;137527;-82
2022/10/20 06:49:25;;;;;;;16.20;9.10;;;;;;;8.28;68.74;101262.85;99960;1281;96454;-81
2022/10/20 06:51:52;;;;;;;16.50;9.20;;;;;;;8.46;68.76;101265.88;99902;1281;137335;-81
2022/10/20 06:54:20;;;;;;;17.60;9.90;;;;;;;8.63;68.31;101269.92;99866;1290;107438;-81
2022/10/20 06:56:47;;;;;;;15.90;9.30;;;;;;;8.65;67.49;101273.55;99882;1291;98373;-81
2022/10/20 06:59:14;;;;;;;12.00;8.70;;;;;;;8.61;66.93;101272.52;99553;1282;138098;-81
2022/10/20 07:01:42;;;;;;;15.70;9.80;;;;;;;8.61;66.84;101272.70;99728;1291;97805;-81
2022/10/20 07:04:14;;;;;;;15.70;10.20;;;;;;;8.69;66.36;101272.99;99830;1291;111956;-81
2022/10/20 07:06:44;;;;;;;21.40;10.90;;;;;;;8.76;65.95;101276.21;99756;1284;140095;-81
2022/10/20 07:09:14;;;;;;;16.70;11.30;;;;;;;8.74;65.70;101273.98;99908;1284;97821;-81
2022/10/20 07:11:42;;;;;;;20.50;10.80;;;;;;;8.77;65.82;101279.50;101292;1291;137665;-81
2022/10/20 07:14:11;;;;;;;18.90;10.70;;;;;;;8.82;65.77;101280.67;101326;1299;95902;-80
2022/10/20 07:16:38;;;;;;;16.80;11.40;;;;;;;9.08;66.03;101278.36;101321;1291;137954;-80
2022/10/20 07:19:06;;;;;;;15.30;9.90;;;;;;;9.36;65.68;101282.42;101319;1294;107237;-81
2022/10/20 07:21:35;;;;;;;20.40;10.20;;;;;;;9.50;65.74;101287.30;101418;1284;95712;-81
2022/10/20 07:24:08;;;;;;;16.60;10.40;;;;;;;9.74;65.60;101283.38;101307;1291;137687;-81
2022/10/20 07:26:38;;;;;;;14.70;10.60;;;;;;;9.97;64.93;101288.98;101442;1298;95870;-81
2022/10/20 07:29:06;;;;;;;19.50;11.10;;;;;;;10.05;64.58;101292.02;101344;1298;138461;-81
2022/10/20 07:31:35;;;;;;;17.80;10.30;;;;;;;10.08;64.41;101295.27;101416;1291;107358;-80
2022/10/20 07:34:04;;;;;;;14.60;10.50;;;;;;;10.21;64.23;101297.89;101437;1291;95638;-81
2022/10/20 07:36:51;;;;;;;16.50;11.20;;;;;;;10.68;63.97;101298.41;101168;1298;138433;-80
2022/10/20 07:39:18;;;;;;;16.50;10.20;;;;;;;11.44;63.82;101300.57;101460;1291;96052;-80
2022/10/20 07:41:46;;;;;;;11.70;8.60;;;;;;;12.30;62.51;101297.08;101255;1291;139656;-79
2022/10/20 07:44:14;;;;;;;12.40;9.60;;;;;;;13.00;61.30;101288.44;101383;1291;107592;-79
2022/10/20 07:46:41;;;;;;;14.20;9.50;;;;;;;13.72;60.54;101288.39;101367;1298;138403;-79
2022/10/20 07:49:08;;;;;;;13.20;9.40;;;;;;;14.50;60.07;101282.22;101476;1291;108588;-79
2022/10/20 07:54:24;;;;;;;13.70;10.00;;;;;;;15.91;57.96;101279.79;101272;1290;137719;-79
2022/10/20 07:56:51;;;;;;;13.70;9.40;;;;;;;16.61;57.22;101271.59;101373;1299;107685;-79
2022/10/20 07:59:18;;;;;;;15.10;9.00;;;;;;;17.38;56.40;101267.27;101298;1299;138000;-79
2022/10/20 08:01:46;;;;;;;16.20;10.00;;;;;;;18.29;55.44;101269.59;101367;1291;107626;-71
2022/10/20 08:04:13;;;;;;;15.70;10.10;;;;;;;19.12;53.31;101268.32;101334;1291;96979;-71
2022/10/20 08:06:40;;;;;;;17.20;10.40;;;;;;;19.51;51.15;101266.83;101306;1297;138529;-70
2022/10/20 08:09:08;;;;;;;15.90;10.70;;;;;;;19.81;49.85;101266.27;101331;1291;108230;-68
2022/10/20 08:11:35;;;;;;;15.60;9.90;;;;;;;20.00;49.08;101264.20;101287;1292;139169;-68
2022/10/20 08:14:02;;;;;;;17.50;10.90;;;;;;;20.32;48.88;101263.09;101391;1291;108546;-69
2022/10/20 08:16:29;;;;;;;20.30;12.50;;;;;;;20.68;48.43;101261.27;101359;1299;95877;-69
2022/10/20 08:19:13;;;;;;;16.40;10.20;;;;;;;21.31;48.31;101259.61;99787;1284;113004;-69
2022/10/20 08:21:54;;;;;;;16.00;11.20;;;;;;;21.92;47.40;101258.80;99511;1296;106729;-69
2022/10/20 08:24:21;;;;;;;13.00;10.00;;;;;;;21.88;46.26;101260.88;99408;1294;137883;-69
2022/10/20 08:26:48;;;;;;;13.10;10.00;;;;;;;21.55;45.57;101263.64;99488;1296;109051;-69
2022/10/20 08:29:16;;;;;;;13.50;9.40;;;;;;;21.13;45.45;101269.20;99212;1297;138461;-69
2022/10/20 08:31:44;;;;;;;12.40;9.60;;;;;;;20.50;44.60;101269.29;99302;1280;111838;-69
2022/10/20 08:34:12;;;;;;;16.10;9.00;;;;;;;19.83;45.04;101279.27;99348;1297;109341;-69
2022/10/20 08:36:39;;;;;;;13.30;8.90;;;;;;;19.19;45.36;101277.31;99354;1297;137736;-69
2022/10/20 08:39:06;;;;;;;13.00;9.60;;;;;;;18.65;45.37;101275.61;99439;1289;108411;-69
2022/10/20 08:41:36;;;;;;;13.80;9.40;;;;;;;18.00;45.68;101279.25;99329;1302;138459;-69
2022/10/20 08:44:27;;;;;;;16.90;10.10;;;;;;;17.35;46.20;101277.79;99437;1303;112650;-69
2022/10/20 08:46:55;;;;;;;16.90;9.80;;;;;;;16.83;47.02;101280.39;99280;1297;138105;-69
2022/10/20 08:49:25;;;;;;;17.30;9.10;;;;;;;16.42;47.69;101283.06;99419;1304;98114;-70
2022/10/20 08:51:53;;;;;;;13.90;9.00;;;;;;;16.17;48.06;101286.02;99448;1304;107940;-70
2022/10/20 08:54:20;;;;;;;16.70;9.60;;;;;;;15.76;48.23;101284.75;99178;1304;137905;-69
2022/10/20 08:56:47;;;;;;;15.70;9.80;;;;;;;15.47;49.01;101286.48;99355;1307;112458;-69
2022/10/20 08:59:33;;;;;;;15.00;10.20;;;;;;;15.23;49.73;101287.15;99157;1290;138004;-77
2022/10/20 09:02:00;;;;;;;16.90;10.20;;;;;;;15.17;50.35;101288.60;99675;1287;99451;-76
2022/10/20 09:04:32;;;;;;;18.70;9.60;;;;;;;15.06;50.53;101289.83;99705;1294;107262;-78
2022/10/20 09:07:04;;;;;;;15.10;9.00;;;;;;;14.86;50.67;101284.23;99622;1295;137945;-78
2022/10/20 09:09:33;;;;;;;16.00;9.70;;;;;;;14.56;50.61;101281.54;99724;1285;110431;-77
2022/10/20 09:12:06;;;;;;;13.90;9.40;;;;;;;14.28;51.32;101282.36;99685;1301;138897;-78
2022/10/20 09:14:37;;;;;;;17.30;10.80;;;;;;;14.18;52.10;101282.50;100507;1295;97845;-80
2022/10/20 09:17:05;;;;;;;16.10;9.90;;;;;;;14.17;52.07;101284.11;99582;1293;138686;-80
2022/10/20 09:19:38;;;;;;;14.90;7.80;;;;;;;14.33;52.29;101277.34;99767;1293;97964;-79
2022/10/20 09:22:07;;;;;;;11.50;7.40;;;;;;;14.60;51.92;101277.37;99731;1292;112077;-79
2022/10/20 09:24:36;;;;;;;13.10;8.90;;;;;;;14.73;51.74;101279.92;99596;1293;138267;-78
2022/10/20 09:30:12;;;;;;;10.70;7.50;;;;;;;15.16;52.01;101278.99;96813;1332;635053;-80
2022/10/20 09:32:39;;;;;;;12.50;7.20;;;;;;;15.46;52.11;101277.24;99547;1294;94409;-80
2022/10/20 09:35:34;;;;;;;11.80;7.40;;;;;;;15.91;52.67;101274.35;99350;1297;137725;-79
2022/10/20 09:38:12;;;;;;;10.70;7.20;;;;;;;16.57;52.59;101273.52;99434;1298;94518;-78
2022/10/20 09:40:46;;;;;;;14.60;7.80;;;;;;;17.19;51.91;101271.30;99481;1299;106319;-80
2022/10/20 09:43:18;;;;;;;14.20;8.60;;;;;;;17.63;51.03;101273.75;99352;1301;237536;-77
2022/10/20 09:45:53;;;;;;;11.80;7.90;;;;;;;17.96;50.50;101273.49;99554;1294;94455;-76
2022/10/20 09:48:25;;;;;;;10.00;6.50;;;;;;;18.24;49.77;101263.35;99496;1302;137715;-76
2022/10/20 09:50:55;;;;;;;10.00;6.70;;;;;;;18.59;49.27;101266.92;99573;1292;94423;-77
2022/10/20 09:53:25;;;;;;;8.00;4.50;;;;;;;18.92;48.65;101263.91;99529;1296;138310;-77
2022/10/20 09:55:53;;;;;;;9.70;5.80;;;;;;;19.27;48.31;101262.98;99542;1295;106444;-79
2022/10/20 09:58:26;;;;;;;10.10;6.50;;;;;;;19.61;47.91;101262.44;99616;1296;95152;-78
2022/10/20 10:01:02;;;;;;;7.10;5.20;;;;;;;19.74;46.75;101261.39;100831;1293;136744;-80
2022/10/20 10:03:38;;;;;;;6.20;5.20;;;;;;;19.80;46.34;101260.49;101079;1303;95479;-80
2022/10/20 10:06:26;;;;;;;7.60;4.20;;;;;;;19.96;45.51;101262.29;100226;1298;137441;-82
2022/10/20 10:08:53;;;;;;;8.50;4.80;;;;;;;20.09;45.73;101252.23;99536;1294;107517;-85
2022/10/20 10:11:23;;;;;;;9.50;4.50;;;;;;;20.33;45.44;101255.11;99402;1298;137088;-84
2022/10/20 10:13:52;;;;;;;4.50;3.40;;;;;;;20.51;45.22;101249.86;99558;1302;109284;-85
2022/10/20 10:16:23;;;;;;;5.00;3.60;;;;;;;20.78;44.66;101245.27;99504;1289;95232;-84
2022/10/20 10:18:59;;;;;;;7.80;4.30;;;;;;;20.96;43.89;101246.48;99503;1295;138289;-84
2022/10/20 10:21:25;;;;;;;;;;;;;;;21.07;43.73;101246.35;99453;1301;108205;-84
2022/10/20 10:23:57;;;;;;;6.40;3.90;;;;;;;21.23;43.21;101246.84;99484;1294;123884;-84
2022/10/20 10:26:47;;;;;;;6.00;4.10;;;;;;;21.26;43.10;101245.63;100007;1289;107080;-84
2022/10/20 10:29:28;;;;;;;6.40;4.20;;;;;;;21.46;43.10;101246.85;99502;1310;137375;-83
2022/10/20 10:31:59;;;;;;;6.00;4.30;;;;;;;21.58;42.77;101242.36;99662;1302;109723;-84
2022/10/20 10:34:51;;;;;;;7.10;4.70;;;;;;;21.59;41.91;101241.60;99654;1292;106129;-83
2022/10/20 10:37:18;;;;;;;5.80;3.10;;;;;;;21.48;41.70;101231.33;99679;1303;95126;-83
2022/10/20 10:39:47;;;;;;;6.40;3.40;;;;;;;21.30;41.00;101229.26;99538;1289;106117;-84
2022/10/20 10:42:39;;;;;;;4.10;3.10;;;;;;;21.19;41.20;101227.28;99480;1300;136804;-84
2022/10/20 10:45:17;;;;;;;4.90;3.00;;;;;;;21.18;41.27;101227.52;99642;1296;109754;-85
2022/10/20 10:48:18;;;;;;;5.30;3.80;;;;;;;21.32;41.60;101225.06;99381;1291;136920;-83
2022/10/20 10:50:52;;;;;;;4.80;3.00;;;;;;;21.50;41.16;101221.34;99597;1294;95214;-82
2022/10/20 10:53:31;;;;;;;4.80;3.30;;;;;;;21.59;40.73;101221.80;100198;1295;137305;-84
2022/10/20 10:56:11;;;;;;;4.20;2.80;;;;;;;21.75;41.04;101215.46;99620;1304;95150;-84
2022/10/20 10:58:47;;;;;;;5.90;2.80;;;;;;;21.70;39.45;101212.05;99624;1304;108769;-84
2022/10/20 11:01:20;;;;;;;;;;;;;;;21.54;39.52;101209.55;99524;1297;107578;-84
2022/10/20 11:04:29;;;;;;;4.90;2.20;;;;;;;21.32;39.10;101203.83;99578;1305;95808;-84
2022/10/20 11:07:01;;;;;;;2.90;2.00;;;;;;;21.28;39.50;101199.29;99413;1291;136663;-84
2022/10/20 11:09:36;;;;;;;2.60;1.90;;;;;;;21.21;38.64;101196.38;99685;1296;95225;-83
2022/10/20 11:12:26;;;;;;;2.80;2.20;;;;;;;21.18;38.92;101192.11;99532;1288;136632;-84
2022/10/20 11:15:04;;;;;;;3.80;2.20;;;;;;;21.20;39.06;101192.89;99540;1299;108556;-84
2022/10/20 11:17:45;;;;;;;3.60;2.20;;;;;;;21.08;39.17;101185.33;101023;1295;138184;-84
2022/10/20 11:20:37;;;;;;;2.90;2.00;;;;;;;20.83;38.71;101188.40;100663;1295;108314;-85
2022/10/20 11:23:40;;;;;;;2.10;1.80;;;;;;;20.59;38.57;101179.40;99918;1298;137135;-82
2022/10/20 11:26:18;;;;;;;2.30;1.90;;;;;;;20.57;39.10;101176.35;99869;1292;107873;-82
2022/10/20 11:28:47;;;;;;;1.90;1.50;;;;;;;20.34;38.72;101173.77;100660;1292;107432;-81
2022/10/20 11:31:24;;;;;;;2.60;1.80;;;;;;;19.86;38.17;101173.37;99847;1292;95223;-78
2022/10/20 11:33:52;;;;;;;;;;;;;;;19.23;38.34;101173.80;99732;1295;108274;-81
2022/10/20 11:36:22;;;;;;;4.10;1.40;;;;;;;18.65;38.69;101174.70;99683;1298;123453;-82
2022/10/20 11:38:53;;;;;;;5.80;1.40;;;;;;;18.15;39.00;101169.64;99809;1307;108792;-81
2022/10/20 11:41:26;;;;;;;2.50;1.20;;;;;;;17.68;39.15;101172.40;99727;1285;137321;-80
2022/10/20 11:44:01;;;;;;;1.90;1.10;;;;;;;17.22;39.28;101172.17;99945;1292;95163;-80
2022/10/20 11:46:35;;;;;;;3.40;1.50;;;;;;;16.77;39.32;101168.37;99877;1291;108718;-82
2022/10/20 11:49:03;;;;;;;1.80;1.60;;;;;;;16.34;40.06;101166.66;99862;1294;136872;-81
2022/10/20 11:51:51;;;;;;;2.80;1.40;;;;;;;16.00;40.24;101166.65;99978;1291;108725;-82
2022/10/20 11:54:50;;;;;;;1.70;1.30;;;;;;;15.67;40.69;101165.16;99750;1283;137248;-82
2022/10/20 11:57:29;;;;;;;2.00;0.80;;;;;;;15.36;41.19;101166.84;99924;1291;95007;-82
2022/10/20 12:00:13;;;;;;;1.60;0.80;;;;;;;15.16;41.49;101165.30;99792;1287;137721;-81
2022/10/20 12:03:11;;;;;;;1.90;0.70;;;;;;;15.00;41.51;101167.45;99933;1285;95122;-83
2022/10/20 12:06:20;;;;;;;1.10;0.70;;;;;;;14.79;41.39;101166.95;99765;1298;136634;-82
2022/10/20 12:09:18;;;;;;;1.30;0.60;;;;;;;14.62;41.95;101166.19;99441;1304;107464;-82
2022/10/20 12:11:55;;;;;;;1.70;0.60;;;;;;;14.52;42.27;101158.27;99209;1293;137069;-81
2022/10/20 12:14:28;;;;;;;1.30;0.70;;;;;;;14.38;42.15;101158.71;99392;1298;108393;-81
2022/10/20 12:17:12;;;;;;;2.30;0.50;;;;;;;14.25;42.43;101157.58;99344;1296;139107;-80
2022/10/20 12:19:40;;;;;;;0.60;0.40;;;;;;;14.13;42.78;101153.41;99506;1304;110068;-81
2022/10/20 12:22:28;;;;;;;1.00;0.70;;;;;;;14.05;43.19;101150.20;99386;1291;109032;-81
2022/10/20 12:25:34;;;;;;;2.80;2.00;;;;;;;13.99;43.48;101156.66;99375;1296;138861;-81
2022/10/20 12:28:31;;;;;;;5.10;3.20;;;;;;;13.87;43.40;101154.42;99400;1297;107345;-81
2022/10/20 12:31:00;;;;;;;4.10;2.70;;;;;;;13.84;43.98;101153.29;99408;1297;137193;-81
2022/10/20 12:33:40;;;;;;;9.80;4.90;;;;;;;13.97;44.44;101148.84;99457;1298;108825;-81
2022/10/20 12:36:29;;;;;;;5.00;3.50;;;;;;;14.04;44.45;101145.15;99370;1304;137375;-81
2022/10/20 12:39:20;;;;;;;1.80;1.20;;;;;;;14.09;44.43;101141.84;99554;1293;95312;-81
2022/10/20 12:41:58;;;;;;;1.90;0.70;;;;;;;14.14;44.32;101142.17;99423;1291;136946;-73
2022/10/20 12:44:29;;;;;;;1.00;0.60;;;;;;;14.13;44.13;101142.04;99482;1295;95311;-72
2022/10/20 12:47:03;;;;;;;2.50;0.90;;;;;;;14.06;43.99;101134.77;100114;1289;137466;-72
2022/10/20 12:49:34;;;;;;;1.50;0.90;;;;;;;14.02;44.26;101133.85;99942;1289;107390;-71
2022/10/20 12:52:04;;;;;;;1.20;0.70;;;;;;;13.98;44.05;101132.38;100038;1265;95786;-73
2022/10/20 12:54:37;;;;;;;1.70;0.50;;;;;;;13.93;43.97;101132.39;99802;1286;139015;-71
2022/10/20 12:57:21;;;;;;;1.30;0.60;;;;;;;13.89;44.12;101132.69;99949;1281;95208;-71
2022/10/20 12:59:48;;;;;;;2.20;0.90;;;;;;;13.85;44.09;101130.35;99864;1292;137341;-72
2022/10/20 13:02:32;;;;;;;4.00;0.80;;;;;;;13.80;43.98;101130.69;99939;1287;107448;-72
2022/10/20 13:05:02;;;;;;;2.70;1.40;;;;;;;13.73;44.13;101130.56;99874;1288;137280;-72
2022/10/20 13:08:16;;;;;;;2.00;1.10;;;;;;;13.63;43.97;101127.02;100061;1291;107666;-73
2022/10/20 13:10:44;;;;;;;2.30;1.50;;;;;;;13.49;44.13;101126.06;99879;1292;95298;-73
2022/10/20 13:13:40;;;;;;;2.50;1.30;;;;;;;13.41;44.57;101130.32;99871;1281;137642;-74
2022/10/20 13:16:19;;;;;;;2.50;1.40;;;;;;;13.31;45.09;101125.56;99892;1290;108209;-73
2022/10/20 13:18:49;;;;;;;2.30;1.80;;;;;;;13.20;45.31;101131.79;101352;1289;138137;-73
2022/10/20 13:21:26;;;;;;;3.30;1.50;;;;;;;13.07;45.55;101133.36;101500;1283;109261;-72
2022/10/20 13:24:01;;;;;;;2.50;1.40;;;;;;;12.93;45.63;101128.70;101375;1283;137925;-73
2022/10/20 13:26:31;;;;;;;3.00;1.40;;;;;;;12.81;45.43;101136.02;101449;1287;112508;-80
2022/10/20 13:29:01;;;;;;;1.70;1.20;;;;;;;12.70;45.42;101133.50;101410;1298;137318;-82
2022/10/20 13:31:33;;;;;;;1.60;1.10;;;;;;;12.61;45.46;101132.54;101033;1298;95152;-81